createdAt,value
2023-05-01T00:02:10.467Z,5.45
2023-05-01T00:05:13.476Z,5.20
2023-05-01T00:08:16.115Z,5.32
2023-05-01T00:11:18.863Z,5.30
2023-05-01T00:14:21.700Z,5.43
2023-05-01T00:17:24.278Z,4.95
2023-05-01T00:20:28.268Z,5.13
2023-05-01T00:23:31.075Z,5.40
2023-05-01T00:26:33.583Z,5.28
2023-05-01T00:29:36.423Z,4.88
2023-05-01T00:32:39.064Z,5.40
2023-05-01T00:35:44.625Z,5.25
2023-05-01T00:38:47.163Z,5.03
2023-05-01T00:41:49.847Z,6.05
2023-05-01T00:44:53.454Z,5.05
2023-05-01T00:47:56.009Z,5.50
2023-05-01T00:50:58.858Z,5.80
2023-05-01T00:54:01.884Z,5.15
2023-05-01T00:57:04.901Z,5.20
2023-05-01T01:00:08.763Z,5.25
2023-05-01T01:03:11.843Z,5.25
2023-05-01T01:06:41.238Z,6.00
2023-05-01T01:10:14.672Z,5.43
2023-05-01T01:13:30.233Z,5.50
2023-05-01T01:16:45.567Z,5.55
2023-05-01T01:20:23.803Z,5.38
2023-05-01T01:23:51.515Z,5.70
2023-05-01T01:27:18.382Z,5.43
2023-05-01T01:30:23.839Z,5.13
2023-05-01T01:33:51.681Z,5.82
2023-05-01T01:37:02.786Z,5.15
2023-05-01T01:40:11.717Z,5.30
2023-05-01T01:43:21.125Z,5.00
2023-05-01T01:46:25.222Z,5.68
2023-05-01T01:49:31.667Z,5.22
2023-05-01T01:52:37.186Z,5.22
2023-05-01T01:55:41.445Z,5.93
2023-05-01T01:58:47.219Z,5.28
2023-05-01T02:01:51.233Z,5.78
2023-05-01T02:04:57.132Z,5.47
2023-05-01T02:08:00.566Z,6.13
2023-05-01T02:11:05.154Z,5.72
2023-05-01T02:14:09.323Z,5.75
2023-05-01T02:17:13.699Z,7.13
2023-05-01T02:20:16.657Z,7.00
2023-05-01T02:23:19.319Z,7.53
2023-05-01T02:26:26.643Z,8.30
2023-05-01T02:29:29.930Z,8.45
2023-05-01T02:32:32.689Z,9.27
2023-05-01T02:35:44.994Z,8.95
2023-05-01T02:38:51.059Z,9.43
2023-05-01T02:41:56.716Z,9.00
2023-05-01T02:45:09.450Z,8.93
2023-05-01T02:48:15.895Z,9.48
2023-05-01T02:51:21.074Z,8.52
2023-05-01T02:54:23.789Z,8.85
2023-05-01T02:57:26.614Z,8.70
2023-05-01T03:00:30.033Z,8.48
2023-05-01T03:03:32.579Z,8.68
2023-05-01T03:06:35.032Z,8.55
2023-05-01T03:09:38.269Z,8.20
2023-05-01T03:12:41.040Z,8.80
2023-05-01T03:15:44.964Z,7.93
2023-05-01T03:18:47.670Z,8.95
2023-05-01T03:21:50.389Z,8.43
2023-05-01T03:24:53.022Z,8.35
2023-05-01T03:27:55.620Z,8.27
2023-05-01T03:30:58.978Z,8.98
2023-05-01T03:34:01.503Z,8.20
2023-05-01T03:37:05.156Z,9.38
2023-05-01T03:40:08.562Z,9.25
2023-05-01T03:43:29.826Z,8.32
2023-05-01T03:46:34.264Z,8.55
2023-05-01T03:49:36.916Z,8.50
2023-05-01T03:52:39.454Z,8.30
2023-05-01T03:55:42.363Z,8.40
2023-05-01T03:58:45.539Z,8.63
2023-05-01T04:01:48.450Z,9.07
2023-05-01T04:04:51.564Z,8.40
2023-05-01T04:07:54.275Z,8.55
2023-05-01T04:10:57.420Z,8.55
2023-05-01T04:13:59.934Z,9.13
2023-05-01T04:17:02.431Z,9.38
2023-05-01T04:20:09.407Z,9.38
2023-05-01T04:23:12.844Z,9.88
2023-05-01T04:26:16.377Z,9.88
2023-05-01T04:29:19.512Z,8.80
2023-05-01T04:32:23.525Z,10.20
2023-05-01T04:35:26.946Z,9.95
2023-05-01T04:38:31.191Z,9.75
2023-05-01T04:41:34.928Z,9.52
2023-05-01T04:44:37.995Z,10.02
2023-05-01T04:47:40.879Z,10.07
2023-05-01T04:50:44.416Z,10.45
2023-05-01T04:53:47.316Z,8.95
2023-05-01T04:56:59.516Z,10.02
2023-05-01T05:00:03.324Z,10.25
2023-05-01T05:03:08.609Z,10.23
2023-05-01T05:06:11.630Z,10.43
2023-05-01T05:09:15.381Z,9.98
2023-05-01T05:15:22.026Z,9.27
2023-05-01T05:18:24.975Z,9.18
2023-05-01T05:21:27.694Z,8.55
2023-05-01T05:24:32.886Z,8.30
2023-05-01T05:27:38.252Z,8.27
2023-05-01T05:30:40.948Z,8.05
2023-05-01T05:33:46.332Z,7.88
2023-05-01T05:36:50.706Z,8.23
2023-05-01T05:39:57.984Z,6.80
2023-05-01T05:43:00.989Z,6.47
2023-05-01T05:46:05.300Z,5.88
2023-05-01T05:49:10.149Z,5.32
2023-05-01T05:52:12.694Z,5.97
2023-05-01T05:55:15.508Z,5.53
2023-05-01T05:58:27.910Z,4.80
2023-05-01T06:01:30.985Z,5.20
2023-05-01T06:04:34.015Z,4.70
2023-05-01T06:07:37.543Z,5.07
2023-05-01T06:10:42.851Z,4.88
2023-05-01T06:13:45.892Z,3.45
2023-05-01T06:16:48.701Z,3.55
2023-05-01T06:19:53.444Z,3.83
2023-05-01T06:22:56.658Z,3.33
2023-05-01T06:26:08.093Z,3.53
2023-05-01T06:29:10.699Z,5.25
2023-05-01T06:32:13.532Z,3.60
2023-05-01T06:35:16.187Z,2.78
2023-05-01T06:38:18.753Z,2.95
2023-05-01T06:41:22.181Z,3.05
2023-05-01T06:44:25.010Z,3.53
2023-05-01T06:47:27.653Z,2.80
2023-05-01T06:50:30.212Z,2.58
2023-05-01T06:53:35.441Z,2.90
2023-05-01T06:56:37.962Z,2.90
2023-05-01T06:59:40.647Z,2.50
2023-05-01T07:02:45.375Z,3.13
2023-05-01T07:08:51.826Z,2.75
2023-05-01T07:11:56.998Z,2.90
2023-05-01T07:14:59.933Z,2.83
2023-05-01T07:18:03.294Z,2.80
2023-05-01T07:21:06.019Z,2.83
2023-05-01T07:24:08.553Z,2.80
2023-05-01T07:27:11.326Z,3.00
2023-05-01T07:30:13.927Z,2.90
2023-05-01T07:33:16.822Z,2.80
2023-05-01T07:36:20.626Z,2.70
2023-05-01T07:39:23.416Z,3.17
2023-05-01T07:42:27.708Z,2.92
2023-05-01T07:45:30.397Z,3.00
2023-05-01T07:48:33.119Z,2.75
2023-05-01T07:51:38.326Z,2.63
2023-05-01T07:54:41.800Z,2.72
2023-05-01T07:57:44.356Z,2.78
2023-05-01T08:00:47.002Z,2.42
2023-05-01T08:03:51.022Z,2.70
2023-05-01T08:06:54.267Z,2.70
2023-05-01T08:09:59.988Z,2.45
2023-05-01T08:13:02.887Z,7.10
2023-05-01T08:16:06.051Z,2.90
2023-05-01T08:19:08.749Z,2.42
2023-05-01T08:22:12.509Z,3.03
2023-05-01T08:25:15.188Z,2.60
2023-05-01T08:28:20.896Z,2.78
2023-05-01T08:31:25.265Z,2.72
2023-05-01T08:34:28.016Z,2.58
2023-05-01T08:37:30.507Z,3.17
2023-05-01T08:40:37.854Z,2.75
2023-05-01T08:43:41.115Z,3.22
2023-05-01T08:46:57.488Z,2.13
2023-05-01T08:50:01.932Z,3.10
2023-05-01T08:53:05.671Z,2.67
2023-05-01T08:56:11.273Z,2.60
2023-05-01T08:59:15.201Z,2.60
2023-05-01T09:02:18.664Z,3.30
2023-05-01T09:05:21.778Z,2.97
2023-05-01T09:08:24.390Z,2.63
2023-05-01T09:11:27.930Z,2.90
2023-05-01T09:14:32.228Z,2.55
2023-05-01T09:17:37.004Z,2.88
2023-05-01T09:20:40.494Z,2.63
2023-05-01T09:23:43.300Z,2.78
2023-05-01T09:26:46.240Z,2.70
2023-05-01T09:29:49.183Z,2.80
2023-05-01T09:33:13.858Z,2.70
2023-05-01T09:36:18.092Z,3.00
2023-05-01T09:39:23.488Z,2.42
2023-05-01T09:42:26.032Z,2.80
2023-05-01T09:45:28.729Z,2.60
2023-05-01T09:48:34.836Z,7.30
2023-05-01T09:51:38.293Z,6.13
2023-05-01T09:54:41.432Z,2.55
2023-05-01T09:57:46.587Z,2.70
2023-05-01T10:00:51.908Z,2.65
2023-05-01T10:03:56.329Z,2.58
2023-05-01T10:10:25.294Z,2.35
2023-05-01T10:13:27.869Z,3.40
2023-05-01T10:16:31.490Z,3.85
2023-05-01T10:19:34.073Z,2.60
2023-05-01T10:22:36.937Z,3.92
2023-05-01T10:25:42.003Z,2.50
2023-05-01T10:28:48.061Z,2.42
2023-05-01T10:31:50.860Z,2.17
2023-05-01T10:35:00.917Z,2.55
2023-05-01T10:38:07.761Z,2.50
2023-05-01T10:41:10.844Z,7.85
2023-05-01T10:44:24.820Z,2.63
2023-05-01T10:47:28.581Z,2.55
2023-05-01T10:50:31.191Z,3.08
2023-05-01T10:53:33.883Z,2.40
2023-05-01T10:56:40.206Z,2.33
2023-05-01T11:00:03.853Z,2.58
2023-05-01T11:03:22.012Z,2.40
2023-05-01T11:06:25.298Z,2.63
2023-05-01T11:09:43.331Z,2.65
2023-05-01T11:12:46.220Z,2.45
2023-05-01T11:15:49.207Z,2.60
2023-05-01T11:18:51.984Z,2.47
2023-05-01T11:21:55.778Z,2.40
2023-05-01T11:24:59.101Z,2.42
2023-05-01T11:28:03.343Z,2.42
2023-05-01T11:31:06.613Z,2.22
2023-05-01T11:34:10.038Z,2.30
2023-05-01T11:40:23.982Z,2.90
2023-05-01T11:43:26.915Z,2.70
2023-05-01T11:46:31.333Z,2.42
2023-05-01T11:49:34.493Z,2.13
2023-05-01T11:52:53.498Z,2.50
2023-05-01T11:55:56.817Z,2.40
2023-05-01T11:59:09.646Z,2.28
2023-05-01T12:02:20.441Z,2.25
2023-05-01T12:05:24.677Z,3.05
2023-05-01T12:08:28.767Z,2.30
2023-05-01T12:14:34.787Z,2.22
2023-05-01T12:17:37.417Z,2.22
2023-05-01T12:20:46.249Z,3.10
2023-05-01T12:23:49.878Z,2.40
2023-05-01T12:27:00.890Z,2.40
2023-05-01T12:30:03.618Z,1.92
2023-05-01T12:33:14.407Z,2.03
2023-05-01T12:36:18.074Z,2.15
2023-05-01T12:39:21.142Z,1.92
2023-05-01T12:42:24.087Z,2.00
2023-05-01T12:45:26.722Z,2.33
2023-05-01T12:48:31.349Z,2.00
2023-05-01T12:51:33.964Z,2.33
2023-05-01T12:54:44.037Z,2.10
2023-05-01T12:57:54.321Z,2.33
2023-05-01T13:00:56.934Z,2.28
2023-05-01T13:03:59.495Z,1.73
2023-05-01T13:07:02.732Z,2.20
2023-05-01T13:10:06.441Z,2.30
2023-05-01T13:13:09.203Z,2.40
2023-05-01T13:16:14.147Z,2.15
2023-05-01T13:19:28.465Z,2.53
2023-05-01T13:22:32.515Z,2.70
2023-05-01T13:25:35.981Z,2.20
2023-05-01T13:28:46.919Z,2.10
2023-05-01T13:31:49.595Z,2.25
2023-05-01T13:34:54.211Z,2.40
2023-05-01T13:37:56.999Z,1.88
2023-05-01T13:40:59.583Z,2.00
2023-05-01T13:44:02.121Z,2.10
2023-05-01T13:47:04.698Z,2.10
2023-05-01T13:50:13.338Z,2.22
2023-05-01T13:53:16.386Z,2.10
2023-05-01T13:56:19.073Z,1.85
2023-05-01T13:59:21.667Z,2.10
2023-05-01T14:02:28.001Z,2.10
2023-05-01T14:05:30.950Z,2.03
2023-05-01T14:08:33.995Z,2.00
2023-05-01T14:11:47.182Z,1.83
2023-05-01T14:14:50.163Z,2.10
2023-05-01T14:17:53.219Z,1.75
2023-05-01T14:20:56.120Z,2.25
2023-05-01T14:23:59.095Z,1.88
2023-05-01T14:27:01.969Z,2.17
2023-05-01T14:30:08.336Z,1.70
2023-05-01T14:33:14.445Z,1.90
2023-05-01T14:36:18.776Z,3.00
2023-05-01T14:39:33.170Z,4.57
2023-05-01T14:42:36.529Z,8.20
2023-05-01T14:45:46.220Z,2.20
2023-05-01T14:48:48.940Z,2.08
2023-05-01T14:51:53.287Z,1.95
2023-05-01T14:54:55.915Z,1.83
2023-05-01T14:57:58.647Z,2.00
2023-05-01T15:01:02.589Z,2.00
2023-05-01T15:07:10.470Z,1.95
2023-05-01T15:10:13.460Z,1.80
2023-05-01T15:13:16.068Z,1.75
2023-05-01T15:16:18.978Z,2.10
2023-05-01T15:19:22.619Z,2.25
2023-05-01T15:22:25.629Z,2.13
2023-05-01T15:25:28.426Z,2.20
2023-05-01T15:28:31.371Z,2.17
2023-05-01T15:31:34.391Z,1.98
2023-05-01T15:34:38.155Z,1.90
2023-05-01T15:37:41.510Z,1.90
2023-05-01T15:40:46.709Z,2.70
2023-05-01T15:43:49.328Z,2.13
2023-05-01T15:46:53.119Z,2.00
2023-05-01T15:49:56.145Z,2.10
2023-05-01T15:52:58.859Z,4.00
2023-05-01T15:56:01.535Z,1.95
2023-05-01T15:59:05.694Z,1.73
2023-05-01T16:02:08.947Z,2.00
2023-05-01T16:05:14.235Z,1.83
2023-05-01T16:08:18.187Z,2.50
2023-05-01T16:11:20.954Z,1.80
2023-05-01T16:14:23.971Z,2.05
2023-05-01T16:17:26.536Z,2.20
2023-05-01T16:20:34.453Z,2.25
2023-05-01T16:23:39.712Z,2.42
2023-05-01T16:26:44.599Z,2.20
2023-05-01T16:29:47.268Z,1.90
2023-05-01T16:32:50.015Z,2.22
2023-05-01T16:35:53.151Z,2.10
2023-05-01T16:38:56.207Z,1.95
2023-05-01T16:41:59.209Z,3.40
2023-05-01T16:45:02.229Z,2.58
2023-05-01T16:48:06.247Z,1.95
2023-05-01T16:51:10.066Z,2.00
2023-05-01T16:54:12.880Z,2.33
2023-05-01T16:57:17.220Z,2.33
2023-05-01T17:00:20.358Z,2.22
2023-05-01T17:03:23.315Z,2.03
2023-05-01T17:06:26.531Z,2.10
2023-05-01T17:09:29.069Z,2.22
2023-05-01T17:12:31.987Z,2.50
2023-05-01T17:15:34.539Z,2.60
2023-05-01T17:18:37.153Z,2.42
2023-05-01T17:21:39.957Z,2.63
2023-05-01T17:24:42.648Z,2.53
2023-05-01T17:27:45.250Z,2.95
2023-05-01T17:30:49.160Z,2.30
2023-05-01T17:33:51.908Z,2.50
2023-05-01T17:36:57.195Z,2.50
2023-05-01T17:40:01.012Z,2.33
2023-05-01T17:43:04.352Z,2.70
2023-05-01T17:46:07.223Z,3.25
2023-05-01T17:49:10.075Z,4.03
2023-05-01T17:52:12.905Z,3.38
2023-05-01T17:55:18.789Z,2.78
2023-05-01T17:58:21.706Z,2.70
2023-05-01T18:01:24.691Z,2.60
2023-05-01T18:04:28.950Z,3.25
2023-05-01T18:07:32.351Z,2.45
2023-05-01T18:10:35.405Z,3.20
2023-05-01T18:13:40.105Z,5.07
2023-05-01T18:19:47.102Z,2.72
2023-05-01T18:22:50.692Z,2.60
2023-05-01T18:25:54.933Z,2.95
2023-05-01T18:28:57.743Z,3.00
2023-05-01T18:32:01.499Z,2.58
2023-05-01T18:35:06.449Z,2.80
2023-05-01T18:38:10.933Z,2.80
2023-05-01T18:41:15.221Z,2.90
2023-05-01T18:44:19.231Z,2.60
2023-05-01T18:47:23.625Z,3.22
2023-05-01T18:50:29.103Z,4.28
2023-05-01T18:53:32.159Z,9.32
2023-05-01T18:56:35.422Z,3.83
2023-05-01T18:59:39.206Z,2.70
2023-05-01T19:02:43.004Z,2.80
2023-05-01T19:08:50.058Z,2.47
2023-05-01T19:11:53.687Z,2.10
2023-05-01T19:14:57.019Z,2.55
2023-05-01T19:18:00.797Z,2.80
2023-05-01T19:21:05.402Z,2.70
2023-05-01T19:27:12.542Z,2.60
2023-05-01T19:30:16.511Z,2.90
2023-05-01T19:33:22.130Z,3.20
2023-05-01T19:36:25.927Z,3.00
2023-05-01T19:39:29.309Z,3.08
2023-05-01T19:42:34.543Z,3.10
2023-05-01T19:45:37.985Z,3.47
2023-05-01T19:48:41.650Z,3.65
2023-05-01T19:51:46.185Z,3.30
2023-05-01T19:54:49.994Z,3.22
2023-05-01T19:57:54.113Z,2.70
2023-05-01T20:00:59.277Z,2.85
2023-05-01T20:04:02.691Z,2.80
2023-05-01T20:07:06.612Z,3.08
2023-05-01T20:10:11.233Z,3.30
2023-05-01T20:16:18.055Z,2.85
2023-05-01T20:19:20.741Z,5.32
2023-05-01T20:22:25.219Z,8.88
2023-05-01T20:25:28.121Z,7.80
2023-05-01T20:28:31.068Z,7.85
2023-05-01T20:31:36.360Z,8.93
2023-05-01T20:34:39.114Z,4.00
2023-05-01T20:37:41.894Z,4.25
2023-05-01T20:40:44.970Z,3.67
2023-05-01T20:43:47.849Z,3.85
2023-05-01T20:46:51.193Z,3.55
2023-05-01T20:49:57.212Z,3.50
2023-05-01T20:53:01.319Z,4.03
2023-05-01T20:56:06.283Z,3.40
2023-05-01T20:59:08.922Z,3.00
2023-05-01T21:02:11.722Z,3.00
2023-05-01T21:05:14.442Z,2.90
2023-05-01T21:08:17.036Z,3.53
2023-05-01T21:11:19.643Z,2.80
2023-05-01T21:14:22.312Z,3.00
2023-05-01T21:17:25.174Z,2.65
2023-05-01T21:20:34.145Z,3.17
2023-05-01T21:23:40.845Z,3.08
2023-05-01T21:26:43.982Z,3.20
2023-05-01T21:29:56.924Z,3.40
2023-05-01T21:33:05.529Z,3.35
2023-05-01T21:36:08.212Z,2.92
2023-05-01T21:39:11.526Z,3.42
2023-05-01T21:42:14.659Z,3.55
2023-05-01T21:45:19.118Z,3.10
2023-05-01T21:48:22.043Z,3.05
2023-05-01T21:51:28.588Z,3.10
2023-05-01T21:54:31.903Z,5.55
2023-05-01T21:57:39.203Z,10.27
2023-05-01T22:00:42.029Z,6.13
2023-05-01T22:03:47.439Z,3.50
2023-05-01T22:06:50.945Z,3.85
2023-05-01T22:09:53.967Z,3.40
2023-05-01T22:12:56.802Z,3.47
2023-05-01T22:16:00.900Z,3.10
2023-05-01T22:19:03.537Z,3.17
2023-05-01T22:22:06.165Z,2.70
2023-05-01T22:25:10.353Z,4.13
2023-05-01T22:28:13.448Z,2.80
2023-05-01T22:31:16.855Z,2.88
2023-05-01T22:34:20.031Z,2.83
2023-05-01T22:37:23.103Z,2.97
2023-05-01T22:40:26.515Z,2.80
2023-05-01T22:43:29.425Z,2.85
2023-05-01T22:46:32.239Z,3.00
2023-05-01T22:49:35.491Z,2.88
2023-05-01T22:52:38.114Z,2.70
2023-05-01T22:55:40.838Z,3.15
2023-05-01T22:58:43.568Z,3.13
2023-05-01T23:01:46.606Z,2.78
2023-05-01T23:04:49.603Z,3.13
2023-05-01T23:07:52.241Z,2.90
2023-05-01T23:10:55.014Z,3.55
2023-05-01T23:13:58.069Z,2.92
2023-05-01T23:17:01.099Z,3.28
2023-05-01T23:20:07.362Z,3.17
2023-05-01T23:23:14.039Z,3.08
2023-05-01T23:26:28.971Z,3.80
2023-05-01T23:29:32.203Z,3.60
2023-05-01T23:32:35.284Z,3.17
2023-05-01T23:35:37.969Z,3.13
2023-05-01T23:38:40.826Z,3.13
2023-05-01T23:41:46.225Z,3.20
2023-05-01T23:44:49.167Z,3.13
2023-05-01T23:47:51.945Z,3.70
2023-05-01T23:50:55.857Z,3.08
2023-05-01T23:53:59.482Z,3.45
2023-05-01T23:57:02.623Z,3.03
